Time;durP1;ratioP1;P1;durP2;ratioP2;P2;SDS_P1;SDS_P2;PMS_P1;PMS_P2;Temp;Humidity;BMP_temperature;BMP_pressure;BME280_temperature;BME280_humidity;BME280_pressure;Samples;Min_cycle;Max_cycle;Signal;HPM_P1;HPM_P2
2021/01/13 00:01:59;;;;;;;0.32;0.32;;;1.50;99.90;;;;;;4446532;32;20064;-51
2021/01/13 00:04:24;;;;;;;0.30;0.30;;;1.60;99.90;;;;;;4446569;32;20115;-50
2021/01/13 00:06:50;;;;;;;0.30;0.30;;;1.60;99.90;;;;;;4438547;32;20062;-50
2021/01/13 00:09:15;;;;;;;0.60;0.60;;;1.50;99.90;;;;;;4430301;32;20077;-54
2021/01/13 00:11:41;;;;;;;0.40;0.40;;;1.50;99.90;;;;;;4438384;32;20449;-50
2021/01/13 00:14:07;;;;;;;0.40;0.40;;;1.50;99.90;;;;;;4446111;32;20472;-50
2021/01/13 00:16:33;;;;;;;0.30;0.30;;;1.50;99.90;;;;;;4444835;32;20119;-50
2021/01/13 00:18:58;;;;;;;0.40;0.40;;;1.50;99.90;;;;;;4445363;32;20119;-52
2021/01/13 00:21:23;;;;;;;1.40;1.30;;;1.50;99.90;;;;;;4445945;32;20446;-52
2021/01/13 00:23:49;;;;;;;0.40;0.40;;;1.50;99.90;;;;;;4445842;32;20128;-51
2021/01/13 00:26:21;;;;;;;0.62;0.60;;;1.50;99.90;;;;;;4446396;32;20073;-50
2021/01/13 00:28:47;;;;;;;0.30;0.30;;;1.50;99.90;;;;;;4444571;32;20065;-50
2021/01/13 00:31:13;;;;;;;0.45;0.45;;;1.50;99.90;;;;;;4446000;32;20089;-51
2021/01/13 00:33:40;;;;;;;0.50;0.50;;;1.40;99.90;;;;;;4445830;32;20069;-52
2021/01/13 00:36:06;;;;;;;0.62;0.62;;;1.50;99.90;;;;;;4444874;32;20099;-51
2021/01/13 00:38:31;;;;;;;0.52;0.52;;;1.40;99.90;;;;;;4445043;32;20399;-50
2021/01/13 00:40:57;;;;;;;0.37;0.37;;;1.40;99.90;;;;;;4443909;32;20081;-52
2021/01/13 00:43:22;;;;;;;0.30;0.30;;;1.40;99.90;;;;;;4445147;32;20111;-52
2021/01/13 00:45:48;;;;;;;0.30;0.30;;;1.50;99.90;;;;;;4446071;32;20069;-52
2021/01/13 00:48:13;;;;;;;0.32;0.32;;;1.50;99.90;;;;;;4446544;32;20116;-51
2021/01/13 00:50:38;;;;;;;0.30;0.30;;;1.50;99.90;;;;;;4444988;32;20076;-53
2021/01/13 00:53:04;;;;;;;2.33;0.95;;;1.60;99.90;;;;;;4445807;32;20078;-50
2021/01/13 00:55:29;;;;;;;0.35;0.35;;;1.50;99.90;;;;;;4446321;32;20099;-53
2021/01/13 00:57:55;;;;;;;0.40;0.40;;;1.50;99.90;;;;;;4444620;32;20403;-54
2021/01/13 01:00:21;;;;;;;0.40;0.40;;;1.50;99.90;;;;;;4445939;32;20147;-53
2021/01/13 01:02:46;;;;;;;0.30;0.30;;;1.50;99.90;;;;;;4431856;32;20124;-50
2021/01/13 01:05:12;;;;;;;0.35;0.35;;;1.50;99.90;;;;;;4446180;32;20112;-51
2021/01/13 01:07:45;;;;;;;0.30;0.30;;;1.50;99.90;;;;;;4432747;32;20069;-54
2021/01/13 01:10:18;;;;;;;0.47;0.47;;;1.50;99.90;;;;;;4431065;32;20068;-51
2021/01/13 01:12:44;;;;;;;0.30;0.30;;;1.50;99.90;;;;;;4429297;32;20086;-52
2021/01/13 01:15:10;;;;;;;0.30;0.30;;;1.50;99.90;;;;;;4431047;32;20062;-52
2021/01/13 01:17:35;;;;;;;0.30;0.30;;;1.50;99.90;;;;;;4430726;32;20061;-52
2021/01/13 01:20:02;;;;;;;0.30;0.30;;;1.50;99.90;;;;;;4429035;32;20132;-50
2021/01/13 01:22:27;;;;;;;0.40;0.40;;;1.60;99.90;;;;;;4430475;32;20053;-54
2021/01/13 01:24:53;;;;;;;15.80;1.20;;;1.60;99.90;;;;;;4430471;32;20101;-54
2021/01/13 01:27:18;;;;;;;0.30;0.30;;;1.60;99.90;;;;;;4430689;32;20077;-53
2021/01/13 01:29:44;;;;;;;20.83;1.85;;;1.60;99.90;;;;;;4430657;32;20530;-50
2021/01/13 01:32:09;;;;;;;0.30;0.30;;;1.60;99.90;;;;;;4429458;32;20090;-50
2021/01/13 01:34:35;;;;;;;0.30;0.30;;;1.60;99.90;;;;;;4430296;32;20153;-50
2021/01/13 01:37:01;;;;;;;0.30;0.30;;;1.60;99.90;;;;;;4429479;32;20064;-50
2021/01/13 01:39:26;;;;;;;1.35;1.02;;;1.60;99.90;;;;;;4430217;32;20178;-50
2021/01/13 01:41:52;;;;;;;0.77;0.77;;;1.70;99.90;;;;;;4429941;32;20519;-50
2021/01/13 01:44:17;;;;;;;0.52;0.52;;;1.70;99.90;;;;;;4429413;32;20061;-52
2021/01/13 01:46:46;;;;;;;1.00;0.95;;;1.70;99.90;;;;;;4428486;32;20077;-50
2021/01/13 01:49:14;;;;;;;0.40;0.40;;;1.70;99.90;;;;;;4428991;32;20436;-50
2021/01/13 01:51:54;;;;;;;0.40;0.40;;;1.70;99.90;;;;;;4428930;32;20065;-52
2021/01/13 01:54:24;;;;;;;0.60;0.60;;;1.70;99.90;;;;;;4430073;32;20535;-53
2021/01/13 01:56:53;;;;;;;0.40;0.40;;;1.70;99.90;;;;;;4429573;32;20061;-53
2021/01/13 01:59:40;;;;;;;0.47;0.47;;;1.80;99.90;;;;;;4429839;32;20069;-51
2021/01/13 02:02:09;;;;;;;1.83;1.73;;;1.90;99.90;;;;;;4428454;32;20054;-52
2021/01/13 02:04:36;;;;;;;0.88;0.65;;;1.90;99.90;;;;;;4430226;32;20077;-50
2021/01/13 02:07:11;;;;;;;0.40;0.40;;;1.90;99.90;;;;;;4421453;32;20062;-51
2021/01/13 02:09:37;;;;;;;0.60;0.60;;;2.00;99.90;;;;;;4413425;32;20078;-50
2021/01/13 02:12:10;;;;;;;0.85;0.85;;;2.00;99.90;;;;;;4422917;32;20073;-52
2021/01/13 02:14:36;;;;;;;0.30;0.30;;;2.00;99.90;;;;;;4428940;32;20380;-51
2021/01/13 02:17:06;;;;;;;0.65;0.65;;;2.10;99.90;;;;;;4428115;32;20065;-50
2021/01/13 02:19:50;;;;;;;0.80;0.80;;;2.10;99.90;;;;;;4428285;32;20411;-51
2021/01/13 02:22:20;;;;;;;0.60;0.60;;;2.20;99.90;;;;;;4429743;32;20061;-50
2021/01/13 02:25:14;;;;;;;0.62;0.62;;;2.10;99.90;;;;;;4414919;32;20069;-50
2021/01/13 02:28:19;;;;;;;0.40;0.40;;;2.10;99.90;;;;;;4428401;32;20094;-50
2021/01/13 02:31:05;;;;;;;0.40;0.40;;;2.10;99.90;;;;;;4429064;32;20073;-51
2021/01/13 02:33:53;;;;;;;0.40;0.40;;;2.10;99.90;;;;;;4429893;32;20329;-50
2021/01/13 02:36:20;;;;;;;0.77;0.77;;;2.20;99.90;;;;;;4429464;32;20539;-50
2021/01/13 02:38:51;;;;;;;1.48;1.30;;;2.10;99.90;;;;;;4427517;32;20121;-51
2021/01/13 02:50:02;;;;;;;0.40;0.40;;;2.20;99.90;;;;;;4416161;32;20077;-51
2021/01/13 02:51:36;;;;;;;0.40;0.40;;;2.20;99.90;;;;;;4415232;32;20522;-52
2021/01/13 02:54:27;;;;;;;1.10;1.02;;;2.20;99.90;;;;;;4430359;32;20086;-50
2021/01/13 02:57:02;;;;;;;0.30;0.30;;;2.20;99.90;;;;;;4432134;32;20177;-53
2021/01/13 02:59:27;;;;;;;0.50;0.50;;;2.20;99.90;;;;;;4431343;32;20081;-51
2021/01/13 03:01:53;;;;;;;0.30;0.30;;;2.10;99.90;;;;;;4431517;32;20062;-51
2021/01/13 03:04:19;;;;;;;0.30;0.30;;;2.20;99.90;;;;;;4431727;32;20065;-51
2021/01/13 03:06:46;;;;;;;5.65;1.20;;;2.20;99.90;;;;;;4431660;32;20081;-51
2021/01/13 03:09:12;;;;;;;0.30;0.30;;;2.20;99.90;;;;;;4430255;32;20189;-50
2021/01/13 03:11:40;;;;;;;0.50;0.50;;;2.20;99.90;;;;;;4439074;32;20525;-53
2021/01/13 03:14:17;;;;;;;0.30;0.30;;;2.20;99.90;;;;;;4446201;32;20076;-51
2021/01/13 03:16:45;;;;;;;3.83;1.05;;;2.20;99.90;;;;;;4446649;32;20061;-50
2021/01/13 03:19:35;;;;;;;0.30;0.30;;;2.20;99.90;;;;;;4447371;32;20085;-51
2021/01/13 03:22:08;;;;;;;0.40;0.40;;;2.20;99.90;;;;;;4447409;32;20074;-53
2021/01/13 03:24:46;;;;;;;0.50;0.50;;;2.20;99.90;;;;;;4446127;32;20077;-50
2021/01/13 03:27:15;;;;;;;0.77;0.77;;;2.30;99.90;;;;;;4446716;32;20477;-51
2021/01/13 03:29:45;;;;;;;0.62;0.62;;;2.30;99.90;;;;;;4447396;32;20514;-53
2021/01/13 03:32:21;;;;;;;0.62;0.62;;;2.30;99.90;;;;;;4447673;32;20069;-50
2021/01/13 03:35:09;;;;;;;0.30;0.30;;;2.30;99.90;;;;;;4445895;32;20124;-52
2021/01/13 03:37:54;;;;;;;0.50;0.50;;;2.30;99.90;;;;;;4446989;32;20112;-50
2021/01/13 03:40:21;;;;;;;0.30;0.30;;;2.30;99.90;;;;;;4446553;32;20074;-50
2021/01/13 03:42:51;;;;;;;0.40;0.40;;;2.30;99.90;;;;;;4446089;32;20127;-54
2021/01/13 03:45:39;;;;;;;3.03;1.65;;;2.30;99.90;;;;;;4445013;32;20064;-52
2021/01/13 03:48:09;;;;;;;0.40;0.40;;;2.30;99.90;;;;;;4433932;32;20108;-51
2021/01/13 03:50:38;;;;;;;0.77;0.77;;;2.30;99.90;;;;;;4445255;32;20073;-52
2021/01/13 03:53:07;;;;;;;0.30;0.30;;;2.20;99.90;;;;;;4445064;32;20510;-51
2021/01/13 03:55:36;;;;;;;1.90;0.95;;;2.20;99.90;;;;;;4444918;32;20153;-50
2021/01/13 03:58:23;;;;;;;0.40;0.40;;;2.20;99.90;;;;;;4444877;32;20442;-51
2021/01/13 04:01:26;;;;;;;0.65;0.65;;;2.30;99.90;;;;;;4446198;32;20081;-51
2021/01/13 04:03:59;;;;;;;3.30;1.08;;;2.20;99.90;;;;;;4446245;32;20133;-51
2021/01/13 04:06:24;;;;;;;0.35;0.35;;;2.20;99.90;;;;;;4441513;32;20560;-50
2021/01/13 04:08:50;;;;;;;1.15;0.45;;;2.20;99.90;;;;;;4430740;32;20073;-50
2021/01/13 04:11:19;;;;;;;0.80;0.80;;;2.30;99.90;;;;;;4435265;32;20069;-51
2021/01/13 04:13:47;;;;;;;0.40;0.40;;;2.20;99.90;;;;;;4445523;32;20608;-50
2021/01/13 04:16:14;;;;;;;0.32;0.32;;;2.20;99.90;;;;;;4446329;32;20514;-50
2021/01/13 04:18:43;;;;;;;0.45;0.45;;;2.30;99.90;;;;;;4445967;32;20061;-51
2021/01/13 04:21:11;;;;;;;0.40;0.40;;;2.20;99.90;;;;;;4446111;32;20163;-52
2021/01/13 04:23:36;;;;;;;0.80;0.80;;;2.30;99.90;;;;;;4432553;32;20116;-52
2021/01/13 04:26:03;;;;;;;0.40;0.40;;;2.20;99.90;;;;;;4446586;32;20462;-55
2021/01/13 04:28:29;;;;;;;0.30;0.30;;;2.20;99.90;;;;;;4445718;32;20069;-53
2021/01/13 04:30:56;;;;;;;0.30;0.30;;;2.10;99.90;;;;;;4445550;32;20433;-51
2021/01/13 04:33:23;;;;;;;0.75;0.75;;;2.10;99.90;;;;;;4431356;32;20065;-50
2021/01/13 04:35:49;;;;;;;0.30;0.30;;;2.10;99.90;;;;;;4445814;32;20110;-50
2021/01/13 04:38:22;;;;;;;0.50;0.50;;;2.20;99.90;;;;;;4446066;32;20505;-54
2021/01/13 04:40:51;;;;;;;0.30;0.30;;;2.20;99.90;;;;;;4444721;32;20076;-51
2021/01/13 04:43:23;;;;;;;0.30;0.30;;;2.20;99.90;;;;;;4445238;32;20135;-50
2021/01/13 04:45:49;;;;;;;0.40;0.40;;;2.20;99.90;;;;;;4445292;32;20506;-51
2021/01/13 04:48:18;;;;;;;0.32;0.32;;;2.20;99.90;;;;;;4444211;32;20077;-50
2021/01/13 04:50:46;;;;;;;2.30;0.95;;;2.10;99.90;;;;;;4445945;32;20084;-50
2021/01/13 04:53:14;;;;;;;4.62;0.80;;;2.10;99.90;;;;;;4445250;32;20060;-51
2021/01/13 04:55:45;;;;;;;0.40;0.40;;;2.20;99.90;;;;;;4445645;32;20069;-50
2021/01/13 04:58:43;;;;;;;0.30;0.30;;;2.20;99.90;;;;;;4446278;32;20119;-50
2021/01/13 05:01:34;;;;;;;0.30;0.30;;;2.20;99.90;;;;;;4446365;32;20128;-51
2021/01/13 05:04:07;;;;;;;;;;;2.20;99.90;;;;;;4446445;32;20112;-51
2021/01/13 05:07:05;;;;;;;0.40;0.40;;;2.20;99.90;;;;;;4440797;32;19948;-51
2021/01/13 05:09:43;;;;;;;0.40;0.40;;;2.20;99.90;;;;;;4428738;32;20073;-51
2021/01/13 05:12:11;;;;;;;0.80;0.80;;;2.20;99.90;;;;;;4429814;32;20135;-53
2021/01/13 05:14:44;;;;;;;7.85;1.52;;;2.10;99.90;;;;;;4429547;32;20085;-51
2021/01/13 05:17:33;;;;;;;0.50;0.50;;;2.10;99.90;;;;;;4416982;32;20128;-50
2021/01/13 05:20:08;;;;;;;0.40;0.40;;;2.10;99.90;;;;;;4419448;32;20056;-51
2021/01/13 05:22:35;;;;;;;0.30;0.30;;;2.00;99.90;;;;;;4430074;32;20081;-51
2021/01/13 05:25:05;;;;;;;0.30;0.30;;;2.00;99.90;;;;;;4430975;32;20428;-52
2021/01/13 05:28:02;;;;;;;0.40;0.40;;;2.00;99.90;;;;;;4430673;32;20065;-51
2021/01/13 05:30:31;;;;;;;0.30;0.30;;;2.00;99.90;;;;;;4431300;32;20058;-52
2021/01/13 05:32:58;;;;;;;0.30;0.30;;;1.90;99.90;;;;;;4430024;32;20068;-52
2021/01/13 05:35:28;;;;;;;0.40;0.40;;;1.90;99.90;;;;;;4430727;32;20444;-50
2021/01/13 05:38:04;;;;;;;;;;;1.90;99.90;;;;;;4429963;32;20065;-53
2021/01/13 05:40:29;;;;;;;0.50;0.50;;;1.90;99.90;;;;;;4428718;32;19960;-53
2021/01/13 05:42:56;;;;;;;0.60;0.60;;;1.90;99.90;;;;;;4428991;32;20429;-50
2021/01/13 05:45:24;;;;;;;0.40;0.40;;;1.90;99.90;;;;;;4429128;32;20053;-53
2021/01/13 05:47:53;;;;;;;1.25;1.15;;;2.00;99.90;;;;;;4430231;32;20061;-53
2021/01/13 05:50:21;;;;;;;0.30;0.30;;;1.90;99.90;;;;;;4430011;32;20062;-50
2021/01/13 05:52:49;;;;;;;0.45;0.45;;;2.00;99.90;;;;;;4416375;32;20086;-52
2021/01/13 05:55:17;;;;;;;1.95;0.77;;;2.00;99.90;;;;;;4429244;32;20049;-51
2021/01/13 05:58:03;;;;;;;0.40;0.40;;;2.00;99.90;;;;;;4428042;32;20077;-51
2021/01/13 06:00:31;;;;;;;0.32;0.32;;;2.00;99.90;;;;;;4417758;32;20077;-50
2021/01/13 06:02:59;;;;;;;0.85;0.82;;;2.00;99.90;;;;;;4430974;32;20077;-51
2021/01/13 06:05:26;;;;;;;0.73;0.73;;;2.00;99.90;;;;;;4444453;32;20084;-53
2021/01/13 06:07:52;;;;;;;0.30;0.30;;;2.10;99.90;;;;;;4445181;32;20131;-55
2021/01/13 06:10:19;;;;;;;0.40;0.40;;;2.00;99.90;;;;;;4429765;32;20496;-51
2021/01/13 06:12:48;;;;;;;0.30;0.30;;;2.10;99.90;;;;;;4442215;32;20073;-51
2021/01/13 06:15:14;;;;;;;0.32;0.32;;;2.10;99.90;;;;;;4443464;32;20065;-52
2021/01/13 06:17:49;;;;;;;2.72;0.82;;;2.10;99.90;;;;;;4443682;32;20090;-52
2021/01/13 06:20:34;;;;;;;0.30;0.30;;;2.10;99.90;;;;;;4443187;32;20124;-53
2021/01/13 06:22:59;;;;;;;0.30;0.30;;;2.10;99.90;;;;;;4445420;32;20061;-52
2021/01/13 06:25:27;;;;;;;0.35;0.35;;;2.20;99.90;;;;;;4430361;32;20557;-51
2021/01/13 06:28:33;;;;;;;0.40;0.40;;;2.20;99.90;;;;;;4444490;32;20073;-51
2021/01/13 06:31:03;;;;;;;0.30;0.30;;;2.10;99.90;;;;;;4435136;32;20065;-50
2021/01/13 06:33:52;;;;;;;0.95;0.95;;;2.20;99.90;;;;;;4444130;32;20101;-50
2021/01/13 06:36:29;;;;;;;0.30;0.30;;;2.10;99.90;;;;;;4445140;32;20077;-57
2021/01/13 06:38:58;;;;;;;0.40;0.40;;;2.20;99.90;;;;;;4444123;32;20127;-52
2021/01/13 06:41:25;;;;;;;0.30;0.30;;;2.30;99.90;;;;;;4444651;32;20543;-51
2021/01/13 06:44:06;;;;;;;0.40;0.40;;;2.20;99.90;;;;;;4444130;32;20081;-51
2021/01/13 06:46:33;;;;;;;1.02;0.85;;;2.20;99.90;;;;;;4445082;32;20086;-51
2021/01/13 06:49:13;;;;;;;0.37;0.37;;;2.20;99.90;;;;;;4444486;32;20057;-52
2021/01/13 06:51:42;;;;;;;0.40;0.40;;;2.10;99.90;;;;;;4444998;32;20056;-52
2021/01/13 06:54:09;;;;;;;0.40;0.40;;;2.10;99.90;;;;;;4445404;32;20065;-51
2021/01/13 06:56:44;;;;;;;0.62;0.62;;;2.10;99.90;;;;;;4445016;32;20069;-51
2021/01/13 06:59:10;;;;;;;0.30;0.30;;;2.10;99.90;;;;;;4428387;32;20098;-51
2021/01/13 07:01:48;;;;;;;1.65;1.30;;;2.20;99.90;;;;;;4429110;32;20057;-56
2021/01/13 07:04:13;;;;;;;1.25;1.15;;;2.20;99.90;;;;;;4428753;32;20101;-51
2021/01/13 07:06:39;;;;;;;0.52;0.52;;;2.30;99.90;;;;;;4434237;32;20062;-52
2021/01/13 07:09:04;;;;;;;0.40;0.40;;;2.20;99.90;;;;;;4444198;32;20064;-51
2021/01/13 07:11:38;;;;;;;0.32;0.32;;;2.30;99.90;;;;;;4439137;32;20062;-55
2021/01/13 07:14:04;;;;;;;0.70;0.70;;;2.30;99.90;;;;;;4429664;32;20078;-51
2021/01/13 07:16:33;;;;;;;0.35;0.35;;;2.20;99.90;;;;;;4427576;32;20074;-54
2021/01/13 07:19:01;;;;;;;0.65;0.65;;;2.30;99.90;;;;;;4429112;32;20057;-51
2021/01/13 07:21:42;;;;;;;4.25;1.55;;;2.30;99.90;;;;;;4428208;32;20061;-52
2021/01/13 07:24:12;;;;;;;0.37;0.37;;;2.30;99.90;;;;;;4428042;32;20082;-51
2021/01/13 07:26:39;;;;;;;0.50;0.50;;;2.30;99.90;;;;;;4428683;32;20425;-51
2021/01/13 07:29:05;;;;;;;0.40;0.40;;;2.40;99.90;;;;;;4431253;32;20618;-53
2021/01/13 07:31:32;;;;;;;0.30;0.30;;;2.40;99.90;;;;;;4431085;32;20132;-50
2021/01/13 07:34:07;;;;;;;7.75;1.75;;;2.40;99.90;;;;;;4430917;32;20105;-52
2021/01/13 07:36:37;;;;;;;2.70;0.55;;;2.50;99.90;;;;;;4430211;32;20176;-51
2021/01/13 07:39:05;;;;;;;3.40;1.10;;;2.50;99.90;;;;;;4430360;32;20057;-50
2021/01/13 07:42:11;;;;;;;0.40;0.40;;;2.50;99.90;;;;;;4416813;32;20070;-54
2021/01/13 07:44:42;;;;;;;0.40;0.40;;;2.60;99.90;;;;;;4421475;32;20085;-54
2021/01/13 07:47:24;;;;;;;;;;;2.60;99.90;;;;;;4443453;32;20160;-51
2021/01/13 07:50:05;;;;;;;0.30;0.30;;;2.60;99.90;;;;;;4443425;32;19961;-51
2021/01/13 07:52:37;;;;;;;0.70;0.70;;;2.60;99.90;;;;;;4435029;32;20082;-51
2021/01/13 07:55:12;;;;;;;0.30;0.30;;;2.60;99.90;;;;;;4431297;32;20061;-53
2021/01/13 07:57:44;;;;;;;0.85;0.75;;;2.60;99.90;;;;;;4428769;32;20073;-54
2021/01/13 08:00:23;;;;;;;0.37;0.37;;;2.60;99.90;;;;;;4436389;32;20068;-54
2021/01/13 08:03:28;;;;;;;0.60;0.60;;;2.70;99.90;;;;;;4432441;32;20461;-56
2021/01/13 08:06:30;;;;;;;0.30;0.30;;;2.70;99.90;;;;;;4432588;32;20086;-52
2021/01/13 08:09:14;;;;;;;6.03;1.33;;;2.60;99.90;;;;;;4429028;32;20478;-54
2021/01/13 08:12:14;;;;;;;0.98;0.98;;;2.60;99.90;;;;;;4431800;32;20064;-51
2021/01/13 08:15:01;;;;;;;1.65;0.85;;;2.50;99.90;;;;;;4438984;32;20062;-51
2021/01/13 08:17:47;;;;;;;7.43;2.83;;;2.70;99.90;;;;;;4435783;32;20365;-53
2021/01/13 08:20:53;;;;;;;2.37;1.40;;;2.70;99.90;;;;;;4437216;32;20114;-54
2021/01/13 08:23:29;;;;;;;2.83;1.42;;;2.70;99.90;;;;;;4443488;32;20083;-51
2021/01/13 08:25:58;;;;;;;0.32;0.32;;;2.70;99.90;;;;;;4435335;32;20124;-51
2021/01/13 08:28:25;;;;;;;0.30;0.30;;;2.60;99.90;;;;;;4429538;32;20070;-50
2021/01/13 08:30:52;;;;;;;0.55;0.55;;;2.60;99.90;;;;;;4429870;32;20185;-53
2021/01/13 08:33:25;;;;;;;0.50;0.50;;;2.60;99.90;;;;;;4429145;32;20098;-52
2021/01/13 08:35:57;;;;;;;2.10;0.95;;;2.70;99.90;;;;;;4434078;32;20068;-53
2021/01/13 08:38:23;;;;;;;0.30;0.30;;;2.70;99.90;;;;;;4430466;32;20530;-53
2021/01/13 08:40:49;;;;;;;0.47;0.47;;;2.70;99.90;;;;;;4433778;32;95863;-52
2021/01/13 08:43:17;;;;;;;0.30;0.30;;;2.70;99.90;;;;;;4439596;32;20455;-51
2021/01/13 08:45:45;;;;;;;0.30;0.30;;;2.70;99.90;;;;;;4439686;32;20068;-53
2021/01/13 08:48:15;;;;;;;3.10;1.00;;;2.70;99.90;;;;;;4439475;32;20057;-56
2021/01/13 08:50:43;;;;;;;4.78;1.35;;;2.70;99.90;;;;;;4429709;32;20684;-52
2021/01/13 08:53:24;;;;;;;1.17;1.00;;;2.70;99.90;;;;;;4433564;26;20078;-75
2021/01/13 08:55:51;;;;;;;;;;;2.80;99.90;;;;;;4410700;32;20065;-75
2021/01/13 08:58:29;;;;;;;0.40;0.40;;;2.80;99.90;;;;;;4388196;32;20346;-75
2021/01/13 09:01:02;;;;;;;0.30;0.30;;;2.80;99.90;;;;;;4388862;32;20059;-76
2021/01/13 09:03:34;;;;;;;0.40;0.40;;;2.90;99.90;;;;;;4392930;32;20434;-75
2021/01/13 09:06:18;;;;;;;7.47;2.05;;;2.80;99.90;;;;;;4397382;32;20090;-76
2021/01/13 09:08:47;;;;;;;0.40;0.40;;;2.90;99.90;;;;;;4393883;32;20082;-75
2021/01/13 09:11:44;;;;;;;4.05;0.80;;;3.00;99.90;;;;;;4386204;32;20054;-76
2021/01/13 09:14:32;;;;;;;0.60;0.55;;;3.00;99.90;;;;;;4388556;32;20059;-76
2021/01/13 09:16:58;;;;;;;0.30;0.30;;;3.10;99.90;;;;;;4393380;32;20085;-75
2021/01/13 09:19:33;;;;;;;0.43;0.43;;;3.10;99.90;;;;;;4393798;32;20123;-75
2021/01/13 09:22:01;;;;;;;0.40;0.40;;;3.10;99.90;;;;;;4399527;32;20069;-75
2021/01/13 09:24:35;;;;;;;0.40;0.40;;;3.00;99.90;;;;;;4395526;32;20073;-77
2021/01/13 09:27:03;;;;;;;0.40;0.40;;;3.00;99.90;;;;;;4392778;32;20066;-75
2021/01/13 09:29:48;;;;;;;0.30;0.30;;;3.00;99.90;;;;;;4395397;32;20545;-75
2021/01/13 09:32:15;;;;;;;0.60;0.60;;;3.10;99.90;;;;;;4395672;32;20083;-77
2021/01/13 09:34:42;;;;;;;0.77;0.77;;;3.10;99.90;;;;;;4390487;32;20078;-76
2021/01/13 09:37:08;;;;;;;0.30;0.30;;;3.10;99.90;;;;;;4385207;32;20078;-76
2021/01/13 09:39:35;;;;;;;2.47;1.05;;;3.10;99.90;;;;;;4388067;32;20499;-76
2021/01/13 09:42:03;;;;;;;0.30;0.30;;;3.10;99.90;;;;;;4390084;32;20106;-77
2021/01/13 09:44:31;;;;;;;2.80;0.95;;;3.10;99.90;;;;;;4397141;32;20075;-77
2021/01/13 09:46:57;;;;;;;0.73;0.73;;;3.20;99.90;;;;;;4393589;32;20086;-76
2021/01/13 09:49:23;;;;;;;0.30;0.30;;;3.20;99.90;;;;;;4388555;32;20062;-76
2021/01/13 09:51:49;;;;;;;0.30;0.30;;;3.30;99.90;;;;;;4398062;32;20516;-76
2021/01/13 09:54:22;;;;;;;0.30;0.30;;;3.30;99.90;;;;;;4384162;32;20139;-76
2021/01/13 09:56:54;;;;;;;1.30;0.60;;;3.30;99.90;;;;;;4393313;32;20130;-76
2021/01/13 09:59:24;;;;;;;1.08;0.75;;;3.40;99.90;;;;;;4394093;32;20065;-77
2021/01/13 10:01:55;;;;;;;1.05;1.05;;;3.40;99.90;;;;;;4395429;32;20086;-76
2021/01/13 10:04:20;;;;;;;;;;;3.40;99.90;;;;;;4396348;32;20511;-77
2021/01/13 10:06:52;;;;;;;0.40;0.40;;;3.30;99.90;;;;;;4387662;32;19961;-76
2021/01/13 10:09:19;;;;;;;1.20;1.10;;;3.30;99.90;;;;;;4389061;32;20446;-76
2021/01/13 10:11:45;;;;;;;0.30;0.30;;;3.30;99.90;;;;;;4393169;32;20089;-76
2021/01/13 10:14:13;;;;;;;0.30;0.30;;;3.30;99.90;;;;;;4394220;32;20058;-75
2021/01/13 10:16:42;;;;;;;0.30;0.30;;;3.30;99.90;;;;;;4393454;32;20087;-76
2021/01/13 10:19:07;;;;;;;0.47;0.47;;;3.40;99.90;;;;;;4391963;32;20129;-74
2021/01/13 10:21:35;;;;;;;0.30;0.30;;;3.40;99.90;;;;;;4397234;32;20066;-75
2021/01/13 10:24:11;;;;;;;0.32;0.32;;;3.40;99.90;;;;;;4382884;32;20062;-75
2021/01/13 10:26:41;;;;;;;0.40;0.40;;;3.40;99.90;;;;;;4388898;32;20484;-75
2021/01/13 10:29:08;;;;;;;5.28;1.20;;;3.40;99.90;;;;;;4391283;32;20066;-75
2021/01/13 10:31:34;;;;;;;1.23;1.00;;;3.40;99.90;;;;;;4393296;32;20074;-75
2021/01/13 10:34:00;;;;;;;1.55;0.88;;;3.40;99.90;;;;;;4398278;32;20066;-75
2021/01/13 10:36:44;;;;;;;0.40;0.40;;;3.40;99.90;;;;;;4397502;32;20124;-76
2021/01/13 10:39:14;;;;;;;0.68;0.68;;;3.40;99.90;;;;;;4386515;32;20066;-75
2021/01/13 10:41:50;;;;;;;0.80;0.75;;;3.40;99.90;;;;;;4400802;32;20125;-77
2021/01/13 10:44:21;;;;;;;0.30;0.30;;;3.40;99.90;;;;;;4392538;32;20122;-75
2021/01/13 10:46:53;;;;;;;0.30;0.30;;;3.40;99.90;;;;;;4393601;32;20082;-76
2021/01/13 10:49:25;;;;;;;0.40;0.40;;;3.40;99.90;;;;;;4399362;32;20087;-76
2021/01/13 10:52:05;;;;;;;0.32;0.32;;;3.40;99.90;;;;;;4398529;32;20133;-76
2021/01/13 10:54:34;;;;;;;0.40;0.40;;;3.40;99.90;;;;;;4397674;32;20070;-75
2021/01/13 10:57:03;;;;;;;0.50;0.50;;;3.50;99.90;;;;;;4396304;32;20452;-75
2021/01/13 10:59:30;;;;;;;0.73;0.73;;;3.50;99.90;;;;;;4390694;32;20063;-75
2021/01/13 11:02:01;;;;;;;4.03;1.60;;;3.60;99.90;;;;;;4398803;32;20094;-75
2021/01/13 11:04:32;;;;;;;0.30;0.30;;;3.60;99.90;;;;;;4392853;32;20062;-75
2021/01/13 11:07:00;;;;;;;0.30;0.30;;;3.60;99.90;;;;;;4393474;32;20077;-74
2021/01/13 11:09:27;;;;;;;0.30;0.30;;;3.60;99.90;;;;;;4408099;32;20523;-77
2021/01/13 11:11:53;;;;;;;0.40;0.40;;;3.50;99.90;;;;;;4401346;32;20066;-75
2021/01/13 11:14:43;;;;;;;0.30;0.30;;;3.60;99.90;;;;;;4391470;32;20481;-75
2021/01/13 11:17:12;;;;;;;1.17;0.73;;;3.70;99.90;;;;;;4387924;32;20067;-75
2021/01/13 11:19:39;;;;;;;0.30;0.30;;;3.70;99.90;;;;;;4394748;32;20063;-76
2021/01/13 11:22:06;;;;;;;0.40;0.40;;;3.70;99.90;;;;;;4397909;32;20066;-75
2021/01/13 11:24:35;;;;;;;0.30;0.30;;;3.80;99.90;;;;;;4397458;32;20077;-75
2021/01/13 11:27:05;;;;;;;0.30;0.30;;;3.70;99.90;;;;;;4398027;32;20504;-75
2021/01/13 11:29:34;;;;;;;0.30;0.30;;;3.70;99.90;;;;;;4401256;32;20066;-76
2021/01/13 11:32:00;;;;;;;0.30;0.30;;;3.80;99.90;;;;;;4397620;32;20109;-75
2021/01/13 11:34:27;;;;;;;0.60;0.60;;;3.70;99.90;;;;;;4402137;32;20079;-76
2021/01/13 11:37:19;;;;;;;0.47;0.47;;;3.70;99.90;;;;;;4394856;32;20164;-75
2021/01/13 11:40:02;;;;;;;0.30;0.30;;;3.70;99.90;;;;;;4398302;32;20081;-76
2021/01/13 11:43:07;;;;;;;0.30;0.30;;;3.80;99.90;;;;;;4396946;32;20070;-77
2021/01/13 11:45:43;;;;;;;0.35;0.35;;;3.80;99.90;;;;;;4399672;32;20066;-77
2021/01/13 11:48:14;;;;;;;1.98;0.85;;;3.80;99.90;;;;;;4396946;32;20077;-77
2021/01/13 11:50:46;;;;;;;0.30;0.30;;;3.80;99.90;;;;;;4394464;32;20548;-76
2021/01/13 11:53:20;;;;;;;0.30;0.30;;;3.80;99.90;;;;;;4398999;32;20074;-77
2021/01/13 11:55:46;;;;;;;0.50;0.50;;;3.80;99.90;;;;;;4398022;32;20138;-75
2021/01/13 11:58:15;;;;;;;0.35;0.35;;;3.80;99.90;;;;;;4398870;32;20129;-75
2021/01/13 12:00:41;;;;;;;0.40;0.40;;;3.80;99.90;;;;;;4399113;32;20078;-76
2021/01/13 12:03:06;;;;;;;0.35;0.35;;;3.80;99.90;;;;;;4400038;32;20071;-76
2021/01/13 12:05:34;;;;;;;0.30;0.30;;;3.80;99.90;;;;;;4396968;32;20078;-75
2021/01/13 12:08:05;;;;;;;0.30;0.30;;;3.80;99.90;;;;;;4388703;32;20086;-76
2021/01/13 12:10:33;;;;;;;0.40;0.40;;;3.80;99.90;;;;;;4399999;32;20081;-76
2021/01/13 12:13:21;;;;;;;0.30;0.30;;;4.00;99.90;;;;;;4397964;32;20066;-76
2021/01/13 12:16:13;;;;;;;0.73;0.55;;;4.00;99.90;;;;;;4396663;32;20114;-76
2021/01/13 12:18:44;;;;;;;0.32;0.32;;;4.00;99.90;;;;;;4395379;32;20146;-75
2021/01/13 12:21:13;;;;;;;0.43;0.43;;;4.10;99.90;;;;;;4396412;32;20070;-76
2021/01/13 12:23:39;;;;;;;0.30;0.30;;;4.10;99.90;;;;;;4394050;32;20082;-76
2021/01/13 12:26:30;;;;;;;2.17;1.02;;;4.10;99.90;;;;;;4396261;32;20066;-76
2021/01/13 12:29:12;;;;;;;0.50;0.50;;;4.10;99.90;;;;;;4395052;32;20074;-76
2021/01/13 12:31:40;;;;;;;0.50;0.50;;;4.00;99.90;;;;;;4383111;32;20071;-76
2021/01/13 12:34:24;;;;;;;0.32;0.32;;;4.00;99.90;;;;;;4391338;32;20077;-75
2021/01/13 12:36:53;;;;;;;0.30;0.30;;;3.90;99.90;;;;;;4391725;32;20070;-75
2021/01/13 12:39:28;;;;;;;1.75;1.48;;;3.90;99.90;;;;;;4394904;32;20082;-75
2021/01/13 12:41:55;;;;;;;0.40;0.40;;;3.90;99.90;;;;;;4383453;32;20094;-76
2021/01/13 12:44:22;;;;;;;0.43;0.43;;;3.90;99.90;;;;;;4388558;32;20120;-76
2021/01/13 12:46:52;;;;;;;0.50;0.50;;;3.90;99.90;;;;;;4395411;32;20061;-75
2021/01/13 12:49:19;;;;;;;0.60;0.60;;;4.00;99.90;;;;;;4394889;32;20079;-75
2021/01/13 12:52:00;;;;;;;0.30;0.30;;;4.00;99.90;;;;;;4386273;32;20496;-76
2021/01/13 12:54:27;;;;;;;0.30;0.30;;;3.90;99.90;;;;;;4389415;32;20078;-75
2021/01/13 12:56:53;;;;;;;0.30;0.30;;;4.00;99.90;;;;;;4399192;32;20069;-76
2021/01/13 12:59:18;;;;;;;0.40;0.40;;;4.00;99.90;;;;;;4398251;32;20117;-76
2021/01/13 13:01:46;;;;;;;1.75;1.05;;;4.10;99.90;;;;;;4396357;32;20074;-76
2021/01/13 13:04:12;;;;;;;0.62;0.62;;;4.10;99.90;;;;;;4397882;32;20070;-76
2021/01/13 13:06:38;;;;;;;0.28;0.28;;;4.10;99.90;;;;;;4398599;32;20069;-76
2021/01/13 13:09:07;;;;;;;0.30;0.30;;;4.10;99.90;;;;;;4398954;32;20500;-75
2021/01/13 13:11:34;;;;;;;0.37;0.37;;;4.10;99.90;;;;;;4398684;32;20074;-76
2021/01/13 13:14:00;;;;;;;0.40;0.40;;;4.10;99.90;;;;;;4398002;32;20495;-76
2021/01/13 13:16:26;;;;;;;0.40;0.40;;;4.10;99.90;;;;;;4391323;32;20065;-76
2021/01/13 13:18:54;;;;;;;0.30;0.30;;;4.20;99.90;;;;;;4398778;32;20141;-74
2021/01/13 13:21:20;;;;;;;0.40;0.40;;;4.20;99.90;;;;;;4391873;32;20086;-75
2021/01/13 13:23:47;;;;;;;0.35;0.35;;;4.20;99.90;;;;;;4397660;32;20122;-76
2021/01/13 13:26:13;;;;;;;1.65;0.68;;;4.20;99.90;;;;;;4393417;32;20135;-74
2021/01/13 13:28:39;;;;;;;0.52;0.52;;;4.20;99.90;;;;;;4394602;32;20081;-76
2021/01/13 13:31:06;;;;;;;0.30;0.30;;;4.20;99.90;;;;;;4394989;32;20501;-76